sensor_id;sensor_type;location;lat;lon;timestamp;temperature;humidity
13462;DHT22;6803;45.264;5.468;2023-02-01T00:00:29;1.60;99.90
13462;DHT22;6803;45.264;5.468;2023-02-01T00:03:01;1.60;99.90
13462;DHT22;6803;45.264;5.468;2023-02-01T00:05:34;1.50;99.90
13462;DHT22;6803;45.264;5.468;2023-02-01T00:08:05;1.30;99.90
13462;DHT22;6803;45.264;5.468;2023-02-01T00:10:36;1.30;99.90
13462;DHT22;6803;45.264;5.468;2023-02-01T00:13:07;1.20;99.90
13462;DHT22;6803;45.264;5.468;2023-02-01T00:15:37;1.30;99.90
13462;DHT22;6803;45.264;5.468;2023-02-01T00:18:08;1.30;99.90
13462;DHT22;6803;45.264;5.468;2023-02-01T00:20:39;1.50;99.90
13462;DHT22;6803;45.264;5.468;2023-02-01T00:23:11;1.60;99.90
13462;DHT22;6803;45.264;5.468;2023-02-01T00:25:42;1.60;99.90
13462;DHT22;6803;45.264;5.468;2023-02-01T00:28:12;1.70;99.90
13462;DHT22;6803;45.264;5.468;2023-02-01T00:30:43;1.80;99.90
13462;DHT22;6803;45.264;5.468;2023-02-01T00:33:14;1.80;99.90
13462;DHT22;6803;45.264;5.468;2023-02-01T00:35:45;1.90;99.90
13462;DHT22;6803;45.264;5.468;2023-02-01T00:38:15;2.00;99.90
13462;DHT22;6803;45.264;5.468;2023-02-01T00:40:46;2.10;99.90
13462;DHT22;6803;45.264;5.468;2023-02-01T00:43:17;2.10;99.90
13462;DHT22;6803;45.264;5.468;2023-02-01T00:45:48;2.20;99.90
13462;DHT22;6803;45.264;5.468;2023-02-01T00:48:19;2.30;99.90
13462;DHT22;6803;45.264;5.468;2023-02-01T00:50:49;2.40;99.90
13462;DHT22;6803;45.264;5.468;2023-02-01T00:53:20;2.40;99.90
13462;DHT22;6803;45.264;5.468;2023-02-01T00:55:50;2.50;99.90
13462;DHT22;6803;45.264;5.468;2023-02-01T00:58:21;2.50;99.90
13462;DHT22;6803;45.264;5.468;2023-02-01T01:01:04;2.70;99.90
13462;DHT22;6803;45.264;5.468;2023-02-01T01:03:38;2.80;99.90
13462;DHT22;6803;45.264;5.468;2023-02-01T01:06:11;2.80;99.90
13462;DHT22;6803;45.264;5.468;2023-02-01T01:08:43;2.70;99.90
13462;DHT22;6803;45.264;5.468;2023-02-01T01:11:17;2.90;99.90
13462;DHT22;6803;45.264;5.468;2023-02-01T01:13:48;3.40;99.90
13462;DHT22;6803;45.264;5.468;2023-02-01T01:16:20;3.70;99.90
13462;DHT22;6803;45.264;5.468;2023-02-01T01:18:51;3.60;99.90
13462;DHT22;6803;45.264;5.468;2023-02-01T01:21:22;3.30;99.90
13462;DHT22;6803;45.264;5.468;2023-02-01T01:23:53;3.20;99.90
13462;DHT22;6803;45.264;5.468;2023-02-01T01:26:26;3.00;99.90
13462;DHT22;6803;45.264;5.468;2023-02-01T01:28:58;2.90;99.90
13462;DHT22;6803;45.264;5.468;2023-02-01T01:31:30;2.80;99.90
13462;DHT22;6803;45.264;5.468;2023-02-01T01:34:01;2.70;99.90
13462;DHT22;6803;45.264;5.468;2023-02-01T01:36:32;2.70;99.90
13462;DHT22;6803;45.264;5.468;2023-02-01T01:39:02;2.80;99.90
13462;DHT22;6803;45.264;5.468;2023-02-01T01:41:33;2.90;99.90
13462;DHT22;6803;45.264;5.468;2023-02-01T01:44:05;3.10;99.90
13462;DHT22;6803;45.264;5.468;2023-02-01T01:46:38;3.10;99.90
13462;DHT22;6803;45.264;5.468;2023-02-01T01:49:12;3.10;99.90
13462;DHT22;6803;45.264;5.468;2023-02-01T01:51:46;3.00;99.90
13462;DHT22;6803;45.264;5.468;2023-02-01T01:54:20;3.00;99.90
13462;DHT22;6803;45.264;5.468;2023-02-01T01:56:53;3.00;99.90
13462;DHT22;6803;45.264;5.468;2023-02-01T01:59:25;3.00;99.90
13462;DHT22;6803;45.264;5.468;2023-02-01T02:01:57;3.10;99.90
13462;DHT22;6803;45.264;5.468;2023-02-01T02:04:27;3.20;99.90
13462;DHT22;6803;45.264;5.468;2023-02-01T02:07:00;3.20;99.90
13462;DHT22;6803;45.264;5.468;2023-02-01T02:09:32;3.40;99.90
13462;DHT22;6803;45.264;5.468;2023-02-01T02:12:03;3.50;99.90
13462;DHT22;6803;45.264;5.468;2023-02-01T02:14:35;3.50;99.90
13462;DHT22;6803;45.264;5.468;2023-02-01T02:17:20;3.60;99.90
13462;DHT22;6803;45.264;5.468;2023-02-01T02:23:24;3.50;99.90
13462;DHT22;6803;45.264;5.468;2023-02-01T02:29:38;3.60;99.90
13462;DHT22;6803;45.264;5.468;2023-02-01T02:32:25;3.70;99.90
13462;DHT22;6803;45.264;5.468;2023-02-01T02:34:57;3.80;99.90
13462;DHT22;6803;45.264;5.468;2023-02-01T02:37:32;4.00;99.90
13462;DHT22;6803;45.264;5.468;2023-02-01T02:40:08;4.10;99.90
13462;DHT22;6803;45.264;5.468;2023-02-01T02:42:42;4.10;99.90
13462;DHT22;6803;45.264;5.468;2023-02-01T02:45:35;4.10;99.90
13462;DHT22;6803;45.264;5.468;2023-02-01T02:51:20;4.20;99.90
13462;DHT22;6803;45.264;5.468;2023-02-01T02:54:11;4.10;99.90
13462;DHT22;6803;45.264;5.468;2023-02-01T02:57:02;4.00;99.90
13462;DHT22;6803;45.264;5.468;2023-02-01T02:59:51;3.90;99.90
13462;DHT22;6803;45.264;5.468;2023-02-01T03:02:41;3.90;99.90
13462;DHT22;6803;45.264;5.468;2023-02-01T03:05:34;3.90;99.90
13462;DHT22;6803;45.264;5.468;2023-02-01T03:08:10;3.80;99.90
13462;DHT22;6803;45.264;5.468;2023-02-01T03:10:54;3.70;99.90
13462;DHT22;6803;45.264;5.468;2023-02-01T03:13:31;3.60;99.90
13462;DHT22;6803;45.264;5.468;2023-02-01T03:16:06;3.50;99.90
13462;DHT22;6803;45.264;5.468;2023-02-01T03:18:42;3.40;99.90
13462;DHT22;6803;45.264;5.468;2023-02-01T03:21:14;3.40;99.90
13462;DHT22;6803;45.264;5.468;2023-02-01T03:23:48;3.30;99.90
13462;DHT22;6803;45.264;5.468;2023-02-01T03:26:20;3.30;99.90
13462;DHT22;6803;45.264;5.468;2023-02-01T03:28:55;3.20;99.90
13462;DHT22;6803;45.264;5.468;2023-02-01T03:31:28;3.20;99.90
13462;DHT22;6803;45.264;5.468;2023-02-01T03:33:59;3.20;99.90
13462;DHT22;6803;45.264;5.468;2023-02-01T03:36:34;3.30;99.90
13462;DHT22;6803;45.264;5.468;2023-02-01T03:39:07;3.60;99.90
13462;DHT22;6803;45.264;5.468;2023-02-01T03:41:41;3.70;99.90
13462;DHT22;6803;45.264;5.468;2023-02-01T03:44:15;3.40;99.90
13462;DHT22;6803;45.264;5.468;2023-02-01T03:46:49;3.40;99.90
13462;DHT22;6803;45.264;5.468;2023-02-01T03:49:24;3.70;99.90
13462;DHT22;6803;45.264;5.468;2023-02-01T03:51:56;3.80;99.90
13462;DHT22;6803;45.264;5.468;2023-02-01T03:54:28;3.90;99.90
13462;DHT22;6803;45.264;5.468;2023-02-01T03:57:02;3.80;99.90
13462;DHT22;6803;45.264;5.468;2023-02-01T03:59:33;3.70;99.90
13462;DHT22;6803;45.264;5.468;2023-02-01T04:02:04;3.60;99.90
13462;DHT22;6803;45.264;5.468;2023-02-01T04:04:36;3.50;99.90
13462;DHT22;6803;45.264;5.468;2023-02-01T04:07:07;3.50;99.90
13462;DHT22;6803;45.264;5.468;2023-02-01T04:09:37;3.50;99.90
13462;DHT22;6803;45.264;5.468;2023-02-01T04:12:08;3.50;99.90
13462;DHT22;6803;45.264;5.468;2023-02-01T04:14:39;3.50;99.90
13462;DHT22;6803;45.264;5.468;2023-02-01T04:17:10;3.30;99.90
13462;DHT22;6803;45.264;5.468;2023-02-01T04:19:41;3.20;99.90
13462;DHT22;6803;45.264;5.468;2023-02-01T04:22:11;3.20;99.90
13462;DHT22;6803;45.264;5.468;2023-02-01T04:24:41;3.10;99.90
13462;DHT22;6803;45.264;5.468;2023-02-01T04:27:12;3.20;99.90
13462;DHT22;6803;45.264;5.468;2023-02-01T04:29:42;3.10;99.90
13462;DHT22;6803;45.264;5.468;2023-02-01T04:32:14;3.10;99.90
13462;DHT22;6803;45.264;5.468;2023-02-01T04:34:45;3.20;99.90
13462;DHT22;6803;45.264;5.468;2023-02-01T04:37:15;3.20;99.90
13462;DHT22;6803;45.264;5.468;2023-02-01T04:39:46;3.30;99.90
13462;DHT22;6803;45.264;5.468;2023-02-01T04:42:17;3.30;99.90
13462;DHT22;6803;45.264;5.468;2023-02-01T04:44:48;3.30;99.90
13462;DHT22;6803;45.264;5.468;2023-02-01T04:47:18;3.30;99.90
13462;DHT22;6803;45.264;5.468;2023-02-01T04:49:49;3.30;99.90
13462;DHT22;6803;45.264;5.468;2023-02-01T04:52:20;3.20;99.90
13462;DHT22;6803;45.264;5.468;2023-02-01T04:54:50;3.10;99.90
13462;DHT22;6803;45.264;5.468;2023-02-01T04:57:25;3.10;99.90
13462;DHT22;6803;45.264;5.468;2023-02-01T04:59:56;3.20;99.90
13462;DHT22;6803;45.264;5.468;2023-02-01T05:02:27;3.20;99.90
13462;DHT22;6803;45.264;5.468;2023-02-01T05:04:58;3.20;99.90
13462;DHT22;6803;45.264;5.468;2023-02-01T05:07:28;3.30;99.90
13462;DHT22;6803;45.264;5.468;2023-02-01T05:09:59;3.30;99.90
13462;DHT22;6803;45.264;5.468;2023-02-01T05:12:30;3.10;99.90
13462;DHT22;6803;45.264;5.468;2023-02-01T05:15:20;3.00;99.90
13462;DHT22;6803;45.264;5.468;2023-02-01T05:17:50;3.10;99.90
13462;DHT22;6803;45.264;5.468;2023-02-01T05:20:21;3.20;99.90
13462;DHT22;6803;45.264;5.468;2023-02-01T05:22:52;3.30;99.90
13462;DHT22;6803;45.264;5.468;2023-02-01T05:25:23;3.30;99.90
13462;DHT22;6803;45.264;5.468;2023-02-01T05:27:55;3.30;99.90
13462;DHT22;6803;45.264;5.468;2023-02-01T05:30:25;3.20;99.90
13462;DHT22;6803;45.264;5.468;2023-02-01T05:32:56;3.20;99.90
13462;DHT22;6803;45.264;5.468;2023-02-01T05:35:27;3.20;99.90
13462;DHT22;6803;45.264;5.468;2023-02-01T05:37:58;3.30;99.90
13462;DHT22;6803;45.264;5.468;2023-02-01T05:40:28;3.30;99.90
13462;DHT22;6803;45.264;5.468;2023-02-01T05:42:59;3.20;99.90
13462;DHT22;6803;45.264;5.468;2023-02-01T05:45:30;3.20;99.90
13462;DHT22;6803;45.264;5.468;2023-02-01T05:48:01;3.20;99.90
13462;DHT22;6803;45.264;5.468;2023-02-01T05:50:32;3.10;99.90
13462;DHT22;6803;45.264;5.468;2023-02-01T05:53:02;3.20;99.90
13462;DHT22;6803;45.264;5.468;2023-02-01T05:55:33;3.20;99.90
13462;DHT22;6803;45.264;5.468;2023-02-01T05:58:04;3.20;99.90
13462;DHT22;6803;45.264;5.468;2023-02-01T06:00:35;3.30;99.90
13462;DHT22;6803;45.264;5.468;2023-02-01T06:03:06;3.30;99.90
13462;DHT22;6803;45.264;5.468;2023-02-01T06:05:37;3.30;99.90
13462;DHT22;6803;45.264;5.468;2023-02-01T06:08:09;3.30;99.90
13462;DHT22;6803;45.264;5.468;2023-02-01T06:10:39;3.30;99.90
13462;DHT22;6803;45.264;5.468;2023-02-01T06:13:10;3.30;99.90
13462;DHT22;6803;45.264;5.468;2023-02-01T06:15:41;3.20;99.90
13462;DHT22;6803;45.264;5.468;2023-02-01T06:20:59;3.40;99.90
13462;DHT22;6803;45.264;5.468;2023-02-01T06:23:31;3.30;99.90
13462;DHT22;6803;45.264;5.468;2023-02-01T06:26:03;3.40;99.90
13462;DHT22;6803;45.264;5.468;2023-02-01T06:28:34;3.40;99.90
13462;DHT22;6803;45.264;5.468;2023-02-01T06:31:07;3.40;99.90
13462;DHT22;6803;45.264;5.468;2023-02-01T06:33:38;3.50;99.90
13462;DHT22;6803;45.264;5.468;2023-02-01T06:36:10;3.50;99.90
13462;DHT22;6803;45.264;5.468;2023-02-01T06:38:42;3.50;99.90
13462;DHT22;6803;45.264;5.468;2023-02-01T06:41:12;3.50;99.90
13462;DHT22;6803;45.264;5.468;2023-02-01T06:43:43;3.40;99.90
13462;DHT22;6803;45.264;5.468;2023-02-01T06:46:15;3.40;99.90
13462;DHT22;6803;45.264;5.468;2023-02-01T06:48:46;3.40;99.90
13462;DHT22;6803;45.264;5.468;2023-02-01T06:51:23;3.40;99.90
13462;DHT22;6803;45.264;5.468;2023-02-01T06:53:55;3.50;99.90
13462;DHT22;6803;45.264;5.468;2023-02-01T06:56:27;3.50;99.90
13462;DHT22;6803;45.264;5.468;2023-02-01T06:58:58;3.50;99.90
13462;DHT22;6803;45.264;5.468;2023-02-01T07:01:29;3.40;99.90
13462;DHT22;6803;45.264;5.468;2023-02-01T07:04:00;3.30;99.90
13462;DHT22;6803;45.264;5.468;2023-02-01T07:06:31;3.40;99.90
13462;DHT22;6803;45.264;5.468;2023-02-01T07:09:02;3.40;99.90
13462;DHT22;6803;45.264;5.468;2023-02-01T07:11:33;3.40;99.90
13462;DHT22;6803;45.264;5.468;2023-02-01T07:14:04;3.40;99.90
13462;DHT22;6803;45.264;5.468;2023-02-01T07:16:35;3.50;99.90
13462;DHT22;6803;45.264;5.468;2023-02-01T07:19:06;3.50;99.90
13462;DHT22;6803;45.264;5.468;2023-02-01T07:21:37;3.40;99.90
13462;DHT22;6803;45.264;5.468;2023-02-01T07:24:08;3.40;99.90
13462;DHT22;6803;45.264;5.468;2023-02-01T07:26:39;3.40;99.90
13462;DHT22;6803;45.264;5.468;2023-02-01T07:29:09;3.50;99.90
13462;DHT22;6803;45.264;5.468;2023-02-01T07:31:40;3.50;99.90
13462;DHT22;6803;45.264;5.468;2023-02-01T07:34:11;3.60;99.90
13462;DHT22;6803;45.264;5.468;2023-02-01T07:36:42;3.70;99.90
13462;DHT22;6803;45.264;5.468;2023-02-01T07:39:12;3.70;99.90
13462;DHT22;6803;45.264;5.468;2023-02-01T07:41:43;3.70;99.90
13462;DHT22;6803;45.264;5.468;2023-02-01T07:44:14;3.80;99.90
13462;DHT22;6803;45.264;5.468;2023-02-01T07:46:46;3.90;99.90
13462;DHT22;6803;45.264;5.468;2023-02-01T07:49:16;3.80;99.90
13462;DHT22;6803;45.264;5.468;2023-02-01T07:51:47;3.70;99.90
13462;DHT22;6803;45.264;5.468;2023-02-01T07:54:18;3.70;99.90
13462;DHT22;6803;45.264;5.468;2023-02-01T07:56:49;3.70;99.90
13462;DHT22;6803;45.264;5.468;2023-02-01T07:59:20;3.70;99.90
13462;DHT22;6803;45.264;5.468;2023-02-01T08:01:51;3.80;99.90
13462;DHT22;6803;45.264;5.468;2023-02-01T08:04:21;3.80;99.90
13462;DHT22;6803;45.264;5.468;2023-02-01T08:06:52;3.90;99.90
13462;DHT22;6803;45.264;5.468;2023-02-01T08:09:23;3.90;99.90
13462;DHT22;6803;45.264;5.468;2023-02-01T08:11:54;3.90;99.90
13462;DHT22;6803;45.264;5.468;2023-02-01T08:14:24;3.90;99.90
13462;DHT22;6803;45.264;5.468;2023-02-01T08:16:55;4.00;99.90
13462;DHT22;6803;45.264;5.468;2023-02-01T08:19:26;4.00;99.90
13462;DHT22;6803;45.264;5.468;2023-02-01T08:21:57;4.00;99.90
13462;DHT22;6803;45.264;5.468;2023-02-01T08:24:28;4.10;99.90
13462;DHT22;6803;45.264;5.468;2023-02-01T08:26:59;4.10;99.90
13462;DHT22;6803;45.264;5.468;2023-02-01T08:29:30;4.10;99.90
13462;DHT22;6803;45.264;5.468;2023-02-01T08:32:01;4.20;99.90
13462;DHT22;6803;45.264;5.468;2023-02-01T08:34:32;4.20;99.90
13462;DHT22;6803;45.264;5.468;2023-02-01T08:37:03;4.20;99.90
13462;DHT22;6803;45.264;5.468;2023-02-01T08:39:36;4.30;99.90
13462;DHT22;6803;45.264;5.468;2023-02-01T08:42:07;4.30;99.90
13462;DHT22;6803;45.264;5.468;2023-02-01T08:44:56;4.30;99.90
13462;DHT22;6803;45.264;5.468;2023-02-01T08:47:26;4.30;99.90
13462;DHT22;6803;45.264;5.468;2023-02-01T08:49:57;4.30;99.90
13462;DHT22;6803;45.264;5.468;2023-02-01T08:52:28;4.50;99.90
13462;DHT22;6803;45.264;5.468;2023-02-01T08:54:59;4.70;99.90
13462;DHT22;6803;45.264;5.468;2023-02-01T08:57:30;5.00;99.90
13462;DHT22;6803;45.264;5.468;2023-02-01T09:00:01;5.20;99.90
13462;DHT22;6803;45.264;5.468;2023-02-01T09:02:31;5.20;99.90
13462;DHT22;6803;45.264;5.468;2023-02-01T09:05:02;5.30;99.90
13462;DHT22;6803;45.264;5.468;2023-02-01T09:07:34;5.30;99.90
13462;DHT22;6803;45.264;5.468;2023-02-01T09:10:07;5.40;99.90
13462;DHT22;6803;45.264;5.468;2023-02-01T09:12:38;5.50;99.90
13462;DHT22;6803;45.264;5.468;2023-02-01T09:15:10;5.40;99.90
13462;DHT22;6803;45.264;5.468;2023-02-01T09:17:41;5.20;99.90
13462;DHT22;6803;45.264;5.468;2023-02-01T09:20:13;5.20;99.90
13462;DHT22;6803;45.264;5.468;2023-02-01T09:22:44;5.40;99.90
13462;DHT22;6803;45.264;5.468;2023-02-01T09:25:15;5.50;99.90
13462;DHT22;6803;45.264;5.468;2023-02-01T09:27:46;5.60;99.90
13462;DHT22;6803;45.264;5.468;2023-02-01T09:30:18;5.70;99.90
13462;DHT22;6803;45.264;5.468;2023-02-01T09:32:49;5.70;99.90
13462;DHT22;6803;45.264;5.468;2023-02-01T09:35:21;5.80;99.90
13462;DHT22;6803;45.264;5.468;2023-02-01T09:37:53;5.60;99.90
13462;DHT22;6803;45.264;5.468;2023-02-01T09:40:24;5.90;99.90
13462;DHT22;6803;45.264;5.468;2023-02-01T09:43:11;6.00;99.90
13462;DHT22;6803;45.264;5.468;2023-02-01T09:45:49;6.00;99.90
13462;DHT22;6803;45.264;5.468;2023-02-01T09:48:24;6.10;99.90
13462;DHT22;6803;45.264;5.468;2023-02-01T09:50:57;5.80;99.90
13462;DHT22;6803;45.264;5.468;2023-02-01T09:53:32;6.00;99.90
13462;DHT22;6803;45.264;5.468;2023-02-01T09:56:07;6.20;99.90
13462;DHT22;6803;45.264;5.468;2023-02-01T09:58:42;6.50;99.90
13462;DHT22;6803;45.264;5.468;2023-02-01T10:03:57;6.50;99.90
13462;DHT22;6803;45.264;5.468;2023-02-01T10:06:39;6.40;99.90
13462;DHT22;6803;45.264;5.468;2023-02-01T10:09:44;6.40;99.90
13462;DHT22;6803;45.264;5.468;2023-02-01T10:15:30;6.40;99.90
13462;DHT22;6803;45.264;5.468;2023-02-01T10:18:17;6.50;99.90
13462;DHT22;6803;45.264;5.468;2023-02-01T10:20:55;6.60;99.90
13462;DHT22;6803;45.264;5.468;2023-02-01T10:26:34;6.80;99.90
13462;DHT22;6803;45.264;5.468;2023-02-01T10:29:10;7.00;99.90
13462;DHT22;6803;45.264;5.468;2023-02-01T10:31:40;7.00;99.90
13462;DHT22;6803;45.264;5.468;2023-02-01T10:34:15;7.10;99.90
13462;DHT22;6803;45.264;5.468;2023-02-01T10:36:56;7.00;99.90
13462;DHT22;6803;45.264;5.468;2023-02-01T10:39:28;7.10;99.90
13462;DHT22;6803;45.264;5.468;2023-02-01T10:41:58;7.00;99.90
13462;DHT22;6803;45.264;5.468;2023-02-01T10:44:31;7.00;99.90
13462;DHT22;6803;45.264;5.468;2023-02-01T10:47:04;7.00;99.90
13462;DHT22;6803;45.264;5.468;2023-02-01T10:49:38;7.20;99.90
13462;DHT22;6803;45.264;5.468;2023-02-01T10:52:14;7.20;99.90
13462;DHT22;6803;45.264;5.468;2023-02-01T10:54:45;7.30;99.90
13462;DHT22;6803;45.264;5.468;2023-02-01T10:57:23;7.40;99.90
13462;DHT22;6803;45.264;5.468;2023-02-01T10:59:55;7.30;99.90
13462;DHT22;6803;45.264;5.468;2023-02-01T11:02:30;7.10;99.90
13462;DHT22;6803;45.264;5.468;2023-02-01T11:05:03;7.30;99.90
13462;DHT22;6803;45.264;5.468;2023-02-01T11:07:36;7.40;99.90
13462;DHT22;6803;45.264;5.468;2023-02-01T11:10:13;7.60;99.90
13462;DHT22;6803;45.264;5.468;2023-02-01T11:12:47;7.70;99.90
13462;DHT22;6803;45.264;5.468;2023-02-01T11:15:22;8.10;99.90
13462;DHT22;6803;45.264;5.468;2023-02-01T11:17:53;8.20;99.90
13462;DHT22;6803;45.264;5.468;2023-02-01T11:20:34;8.40;99.90
13462;DHT22;6803;45.264;5.468;2023-02-01T11:23:11;8.70;99.90
13462;DHT22;6803;45.264;5.468;2023-02-01T11:25:38;8.80;99.90
13462;DHT22;6803;45.264;5.468;2023-02-01T11:28:09;8.50;99.90
13462;DHT22;6803;45.264;5.468;2023-02-01T11:30:42;8.50;99.90
13462;DHT22;6803;45.264;5.468;2023-02-01T11:33:16;8.10;99.90
13462;DHT22;6803;45.264;5.468;2023-02-01T11:35:48;8.60;99.90
13462;DHT22;6803;45.264;5.468;2023-02-01T11:38:28;8.80;99.90
13462;DHT22;6803;45.264;5.468;2023-02-01T11:40:55;8.90;99.90
13462;DHT22;6803;45.264;5.468;2023-02-01T11:43:28;8.90;99.90
13462;DHT22;6803;45.264;5.468;2023-02-01T11:48:38;9.80;99.90
13462;DHT22;6803;45.264;5.468;2023-02-01T11:51:21;10.10;99.90
13462;DHT22;6803;45.264;5.468;2023-02-01T11:54:02;9.70;99.90
13462;DHT22;6803;45.264;5.468;2023-02-01T11:59:24;9.30;99.90
13462;DHT22;6803;45.264;5.468;2023-02-01T12:02:07;9.50;99.90
13462;DHT22;6803;45.264;5.468;2023-02-01T12:04:53;8.70;99.90
13462;DHT22;6803;45.264;5.468;2023-02-01T12:07:28;8.40;99.90
13462;DHT22;6803;45.264;5.468;2023-02-01T12:10:05;8.50;99.90
13462;DHT22;6803;45.264;5.468;2023-02-01T12:12:41;9.20;99.90
13462;DHT22;6803;45.264;5.468;2023-02-01T12:15:26;9.50;99.90
13462;DHT22;6803;45.264;5.468;2023-02-01T12:18:27;9.00;99.90
13462;DHT22;6803;45.264;5.468;2023-02-01T12:21:30;9.10;99.90
13462;DHT22;6803;45.264;5.468;2023-02-01T12:24:20;8.90;99.90
13462;DHT22;6803;45.264;5.468;2023-02-01T12:27:02;9.30;99.90
13462;DHT22;6803;45.264;5.468;2023-02-01T12:29:59;8.60;99.90
13462;DHT22;6803;45.264;5.468;2023-02-01T12:32:41;8.60;99.90
13462;DHT22;6803;45.264;5.468;2023-02-01T12:35:21;8.80;99.90
13462;DHT22;6803;45.264;5.468;2023-02-01T12:51:40;8.10;99.90
13462;DHT22;6803;45.264;5.468;2023-02-01T12:54:15;7.90;99.90
13462;DHT22;6803;45.264;5.468;2023-02-01T12:56:47;8.60;99.90
13462;DHT22;6803;45.264;5.468;2023-02-01T12:59:22;9.20;99.90
13462;DHT22;6803;45.264;5.468;2023-02-01T13:02:14;9.20;99.90
13462;DHT22;6803;45.264;5.468;2023-02-01T13:04:52;9.70;99.90
13462;DHT22;6803;45.264;5.468;2023-02-01T13:07:25;9.80;99.90
13462;DHT22;6803;45.264;5.468;2023-02-01T13:10:01;10.40;99.90
13462;DHT22;6803;45.264;5.468;2023-02-01T13:12:36;10.40;99.90
13462;DHT22;6803;45.264;5.468;2023-02-01T13:15:11;10.30;99.90
13462;DHT22;6803;45.264;5.468;2023-02-01T13:17:44;9.80;99.90
13462;DHT22;6803;45.264;5.468;2023-02-01T13:20:21;9.70;99.90
13462;DHT22;6803;45.264;5.468;2023-02-01T13:22:59;9.30;99.90
13462;DHT22;6803;45.264;5.468;2023-02-01T13:25:31;8.90;99.90
13462;DHT22;6803;45.264;5.468;2023-02-01T13:28:06;8.60;99.90
13462;DHT22;6803;45.264;5.468;2023-02-01T13:30:48;8.50;99.90
13462;DHT22;6803;45.264;5.468;2023-02-01T13:33:39;8.50;99.90
13462;DHT22;6803;45.264;5.468;2023-02-01T13:36:29;8.60;99.90
13462;DHT22;6803;45.264;5.468;2023-02-01T13:44:55;9.50;99.90
13462;DHT22;6803;45.264;5.468;2023-02-01T13:47:28;9.30;99.90
13462;DHT22;6803;45.264;5.468;2023-02-01T13:50:03;9.00;99.90
13462;DHT22;6803;45.264;5.468;2023-02-01T13:52:38;8.80;99.90
13462;DHT22;6803;45.264;5.468;2023-02-01T13:55:27;8.70;99.90
13462;DHT22;6803;45.264;5.468;2023-02-01T14:06:59;8.50;99.90
13462;DHT22;6803;45.264;5.468;2023-02-01T14:09:35;8.30;99.90
13462;DHT22;6803;45.264;5.468;2023-02-01T14:15:26;8.20;99.90
13462;DHT22;6803;45.264;5.468;2023-02-01T14:17:58;8.10;99.90
13462;DHT22;6803;45.264;5.468;2023-02-01T14:20:41;8.10;99.90
13462;DHT22;6803;45.264;5.468;2023-02-01T14:23:23;8.10;99.90
13462;DHT22;6803;45.264;5.468;2023-02-01T14:26:16;8.00;99.90
13462;DHT22;6803;45.264;5.468;2023-02-01T14:29:01;8.00;99.90
13462;DHT22;6803;45.264;5.468;2023-02-01T14:31:43;8.00;99.90
13462;DHT22;6803;45.264;5.468;2023-02-01T14:34:29;7.90;99.90
13462;DHT22;6803;45.264;5.468;2023-02-01T14:37:02;7.80;99.90
13462;DHT22;6803;45.264;5.468;2023-02-01T14:39:52;7.70;99.90
13462;DHT22;6803;45.264;5.468;2023-02-01T14:42:26;7.70;99.90
13462;DHT22;6803;45.264;5.468;2023-02-01T14:47:52;7.80;99.90
13462;DHT22;6803;45.264;5.468;2023-02-01T14:50:33;7.90;99.90
13462;DHT22;6803;45.264;5.468;2023-02-01T14:53:18;7.90;99.90
13462;DHT22;6803;45.264;5.468;2023-02-01T14:55:53;7.90;99.90
13462;DHT22;6803;45.264;5.468;2023-02-01T14:58:34;8.00;99.90
13462;DHT22;6803;45.264;5.468;2023-02-01T15:01:13;8.00;99.90
13462;DHT22;6803;45.264;5.468;2023-02-01T15:03:53;8.00;99.90
13462;DHT22;6803;45.264;5.468;2023-02-01T15:06:36;8.00;99.90
13462;DHT22;6803;45.264;5.468;2023-02-01T15:09:11;8.00;99.90
13462;DHT22;6803;45.264;5.468;2023-02-01T15:15:15;7.90;99.90
13462;DHT22;6803;45.264;5.468;2023-02-01T15:17:55;7.90;99.90
13462;DHT22;6803;45.264;5.468;2023-02-01T15:20:27;7.80;99.90
13462;DHT22;6803;45.264;5.468;2023-02-01T15:23:01;7.80;99.90
13462;DHT22;6803;45.264;5.468;2023-02-01T15:25:33;7.80;99.90
13462;DHT22;6803;45.264;5.468;2023-02-01T15:28:09;7.70;99.90
13462;DHT22;6803;45.264;5.468;2023-02-01T15:31:01;7.70;99.90
13462;DHT22;6803;45.264;5.468;2023-02-01T15:33:32;7.60;99.90
13462;DHT22;6803;45.264;5.468;2023-02-01T15:36:11;7.60;99.90
13462;DHT22;6803;45.264;5.468;2023-02-01T15:41:31;7.50;99.90
13462;DHT22;6803;45.264;5.468;2023-02-01T15:44:11;7.40;99.90
13462;DHT22;6803;45.264;5.468;2023-02-01T15:46:44;7.40;99.90
13462;DHT22;6803;45.264;5.468;2023-02-01T15:49:24;7.40;99.90
13462;DHT22;6803;45.264;5.468;2023-02-01T15:51:57;7.50;99.90
13462;DHT22;6803;45.264;5.468;2023-02-01T15:54:41;7.50;99.90
13462;DHT22;6803;45.264;5.468;2023-02-01T15:57:05;7.50;99.90
13462;DHT22;6803;45.264;5.468;2023-02-01T15:59:41;7.50;99.90
13462;DHT22;6803;45.264;5.468;2023-02-01T16:02:27;7.50;99.90
13462;DHT22;6803;45.264;5.468;2023-02-01T16:04:58;7.50;99.90
13462;DHT22;6803;45.264;5.468;2023-02-01T16:07:34;7.50;99.90
13462;DHT22;6803;45.264;5.468;2023-02-01T16:10:19;7.50;99.90
13462;DHT22;6803;45.264;5.468;2023-02-01T16:12:50;7.40;99.90
13462;DHT22;6803;45.264;5.468;2023-02-01T16:15:22;7.50;99.90
13462;DHT22;6803;45.264;5.468;2023-02-01T16:17:53;7.50;99.90
13462;DHT22;6803;45.264;5.468;2023-02-01T16:20:24;7.30;99.90
13462;DHT22;6803;45.264;5.468;2023-02-01T16:22:55;7.30;99.90
13462;DHT22;6803;45.264;5.468;2023-02-01T16:25:26;7.40;99.90
13462;DHT22;6803;45.264;5.468;2023-02-01T16:27:56;7.40;99.90
13462;DHT22;6803;45.264;5.468;2023-02-01T16:30:27;7.30;99.90
13462;DHT22;6803;45.264;5.468;2023-02-01T16:33:00;7.20;99.90
13462;DHT22;6803;45.264;5.468;2023-02-01T16:35:33;7.20;99.90
13462;DHT22;6803;45.264;5.468;2023-02-01T16:38:08;7.20;99.90
13462;DHT22;6803;45.264;5.468;2023-02-01T16:40:40;7.20;99.90
13462;DHT22;6803;45.264;5.468;2023-02-01T16:43:15;7.20;99.90
13462;DHT22;6803;45.264;5.468;2023-02-01T16:45:49;7.10;99.90
13462;DHT22;6803;45.264;5.468;2023-02-01T16:48:23;7.20;99.90
13462;DHT22;6803;45.264;5.468;2023-02-01T16:50:56;7.00;99.90
13462;DHT22;6803;45.264;5.468;2023-02-01T16:53:29;7.00;99.90
13462;DHT22;6803;45.264;5.468;2023-02-01T16:56:01;7.00;99.90
13462;DHT22;6803;45.264;5.468;2023-02-01T16:58:35;7.00;99.90
13462;DHT22;6803;45.264;5.468;2023-02-01T17:01:07;6.90;99.90
13462;DHT22;6803;45.264;5.468;2023-02-01T17:03:38;6.90;99.90
13462;DHT22;6803;45.264;5.468;2023-02-01T17:06:11;6.90;99.90
13462;DHT22;6803;45.264;5.468;2023-02-01T17:08:45;6.90;99.90
13462;DHT22;6803;45.264;5.468;2023-02-01T17:11:17;6.80;99.90
13462;DHT22;6803;45.264;5.468;2023-02-01T17:13:48;6.80;99.90
13462;DHT22;6803;45.264;5.468;2023-02-01T17:16:24;6.50;99.90
13462;DHT22;6803;45.264;5.468;2023-02-01T17:18:58;6.50;99.90
13462;DHT22;6803;45.264;5.468;2023-02-01T17:21:37;6.50;99.90
13462;DHT22;6803;45.264;5.468;2023-02-01T17:24:03;6.50;99.90
13462;DHT22;6803;45.264;5.468;2023-02-01T17:26:34;6.50;99.90
13462;DHT22;6803;45.264;5.468;2023-02-01T17:29:06;6.50;99.90
13462;DHT22;6803;45.264;5.468;2023-02-01T17:31:39;6.60;99.90
13462;DHT22;6803;45.264;5.468;2023-02-01T17:34:11;6.50;99.90
13462;DHT22;6803;45.264;5.468;2023-02-01T17:36:44;6.50;99.90
13462;DHT22;6803;45.264;5.468;2023-02-01T17:39:16;6.50;99.90
13462;DHT22;6803;45.264;5.468;2023-02-01T17:44:47;6.50;99.90
13462;DHT22;6803;45.264;5.468;2023-02-01T17:47:18;6.50;99.90
13462;DHT22;6803;45.264;5.468;2023-02-01T17:49:49;6.50;99.90
13462;DHT22;6803;45.264;5.468;2023-02-01T17:52:23;6.50;99.90
13462;DHT22;6803;45.264;5.468;2023-02-01T17:54:54;6.50;99.90
13462;DHT22;6803;45.264;5.468;2023-02-01T17:57:25;6.40;99.90